Time;durP1;ratioP1;P1;durP2;ratioP2;P2;SDS_P1;SDS_P2;PMS_P1;PMS_P2;Temp;Humidity;BMP_temperature;BMP_pressure;BME280_temperature;BME280_humidity;BME280_pressure;Samples;Min_cycle;Max_cycle;Signal;HPM_P1;HPM_P2
2022/07/06 00:00:10;;;;;;;3.73;2.43;;;12.50;99.90;11.90;100671;;;;582431;246;24051;-79
2022/07/06 00:02:38;;;;;;;1.70;1.60;;;12.50;99.90;11.80;100673;;;;582533;240;24103;-79
2022/07/06 00:05:10;;;;;;;7.83;2.03;;;12.50;99.90;11.80;100672;;;;582523;246;24111;-77
2022/07/06 00:07:34;;;;;;;3.20;2.07;;;12.50;99.90;11.80;100675;;;;582110;246;24115;-78
2022/07/06 00:10:05;;;;;;;4.23;1.60;;;12.50;99.90;11.90;100671;;;;582117;241;24088;-78
2022/07/06 00:12:30;;;;;;;1.80;1.33;;;12.50;99.90;11.90;100672;;;;581696;246;24103;-78
2022/07/06 00:14:58;;;;;;;3.00;1.90;;;12.50;99.90;11.90;100679;;;;581981;241;24119;-79
2022/07/06 00:17:26;;;;;;;1.40;1.33;;;12.50;99.90;11.90;100674;;;;582056;246;24111;-79
2022/07/06 00:19:54;;;;;;;3.10;1.40;;;12.60;99.90;11.90;100671;;;;581945;246;24134;-80
2022/07/06 00:22:22;;;;;;;6.50;1.53;;;12.60;99.90;11.90;100681;;;;581833;246;24098;-80
2022/07/06 00:24:50;;;;;;;3.70;1.60;;;12.60;99.90;11.90;100675;;;;576890;246;35118;-79
2022/07/06 00:27:18;;;;;;;3.93;1.40;;;12.60;99.90;11.80;100671;;;;581598;241;24123;-81
2022/07/06 00:29:47;;;;;;;1.13;1.13;;;12.50;99.90;11.80;100667;;;;581769;246;24078;-79
2022/07/06 00:32:15;;;;;;;1.00;1.00;;;12.50;99.90;11.80;100663;;;;581652;246;24136;-82
2022/07/06 00:34:42;;;;;;;1.90;1.40;;;12.50;99.90;11.80;100667;;;;581895;241;24075;-81
2022/07/06 00:37:15;;;;;;;1.37;1.20;;;12.50;99.90;11.80;100662;;;;581683;246;24135;-79
2022/07/06 00:39:39;;;;;;;3.87;1.00;;;12.50;99.90;11.80;100657;;;;581321;247;24074;-79
2022/07/06 00:42:07;;;;;;;1.27;1.03;;;12.50;99.90;11.80;100662;;;;581721;247;24106;-78
2022/07/06 00:44:35;;;;;;;2.40;1.23;;;12.50;99.90;11.80;100661;;;;581701;246;24120;-78
2022/07/06 00:47:07;;;;;;;3.60;1.57;;;12.40;99.90;11.80;100662;;;;581948;246;24080;-83
2022/07/06 00:52:17;;;;;;;8.20;1.50;;;12.40;99.90;11.70;100655;;;;581843;247;24080;-79
2022/07/06 00:54:45;;;;;;;1.97;1.50;;;12.40;99.90;11.70;100657;;;;581729;241;24136;-80
2022/07/06 00:57:13;;;;;;;1.80;1.33;;;12.40;99.90;11.70;100651;;;;581849;241;24096;-80
2022/07/06 00:59:44;;;;;;;3.67;1.90;;;12.40;99.90;11.70;100646;;;;581698;246;24068;-82
2022/07/06 01:02:09;;;;;;;1.30;1.20;;;12.40;99.90;11.70;100647;;;;582523;245;24122;-81
2022/07/06 01:04:36;;;;;;;2.57;1.43;;;12.30;99.90;11.60;100649;;;;582786;241;24087;-82
2022/07/06 01:07:08;;;;;;;2.30;1.77;;;12.30;99.90;11.60;100642;;;;582384;246;24133;-81
2022/07/06 01:09:32;;;;;;;4.90;1.80;;;12.30;99.90;11.50;100637;;;;582151;246;24102;-81
2022/07/06 01:12:00;;;;;;;1.40;1.40;;;12.20;99.90;11.50;100639;;;;582207;246;24080;-82
2022/07/06 01:14:28;;;;;;;9.13;1.73;;;12.20;99.90;11.50;100641;;;;582593;246;24122;-81
2022/07/06 01:16:56;;;;;;;1.30;1.30;;;12.20;99.90;11.50;100641;;;;582317;246;24117;-81
2022/07/06 01:19:24;;;;;;;2.77;1.70;;;12.10;99.90;11.50;100644;;;;582568;240;24229;-81
2022/07/06 01:21:52;;;;;;;2.50;1.27;;;12.10;99.90;11.40;100647;;;;581655;241;24066;-80
2022/07/06 01:24:20;;;;;;;5.33;1.50;;;12.10;99.90;11.40;100654;;;;588888;244;24066;-81
2022/07/06 01:26:51;;;;;;;2.27;1.67;;;12.10;99.90;11.40;100644;;;;589103;244;24089;-82
2022/07/06 01:29:15;;;;;;;1.73;1.30;;;12.10;99.90;11.50;100648;;;;582225;246;24152;-80
2022/07/06 01:31:49;;;;;;;4.50;1.60;;;12.10;99.90;11.50;100646;;;;581340;242;24077;-79
2022/07/06 01:34:17;;;;;;;3.60;1.53;;;12.10;99.90;11.40;100643;;;;582367;246;24114;-79
2022/07/06 01:36:48;;;;;;;2.20;1.50;;;12.10;99.90;11.50;100638;;;;580792;245;24077;-79
2022/07/06 01:39:13;;;;;;;4.40;1.53;;;12.10;99.90;11.50;100636;;;;592617;241;25072;-77
2022/07/06 01:41:41;;;;;;;6.53;1.73;;;12.10;99.90;11.50;100634;;;;592999;236;24041;-79
2022/07/06 01:44:09;;;;;;;1.57;1.30;;;12.10;99.90;11.50;100643;;;;593125;239;24078;-78
2022/07/06 01:46:37;;;;;;;7.60;1.77;;;12.20;99.90;11.50;100631;;;;593071;239;24097;-79
2022/07/06 01:49:05;;;;;;;4.37;1.50;;;12.10;99.90;11.50;100630;;;;582047;244;24096;-79
2022/07/06 01:51:33;;;;;;;1.77;1.47;;;12.20;99.90;11.50;100630;;;;593423;239;24097;-80
2022/07/06 01:54:05;;;;;;;3.27;1.10;;;12.20;99.90;11.50;100633;;;;582042;246;24083;-80
2022/07/06 01:56:29;;;;;;;2.67;1.53;;;12.20;99.90;11.50;100632;;;;581189;247;24110;-80
2022/07/06 01:58:57;;;;;;;6.07;1.60;;;12.20;99.90;11.60;100627;;;;581605;246;24119;-79
2022/07/06 02:01:28;;;;;;;3.23;1.67;;;12.20;99.90;11.50;100627;;;;582015;246;24114;-79
2022/07/06 02:03:52;;;;;;;3.40;1.47;;;12.20;99.90;11.50;100624;;;;581447;247;24106;-79
2022/07/06 02:06:20;;;;;;;2.27;1.30;;;12.20;99.90;11.50;100622;;;;581649;246;24068;-81
2022/07/06 02:08:51;;;;;;;2.73;2.00;;;12.20;99.90;11.50;100626;;;;576818;246;35121;-81
2022/07/06 02:11:17;;;;;;;4.70;1.80;;;12.20;99.90;11.60;100624;;;;581491;246;25158;-81
2022/07/06 02:13:45;;;;;;;2.93;1.50;;;12.20;99.90;11.60;100620;;;;583194;245;24089;-79
2022/07/06 02:16:13;;;;;;;3.47;1.53;;;12.20;99.90;11.60;100622;;;;583189;246;24133;-79
2022/07/06 02:18:40;;;;;;;1.50;1.40;;;12.20;99.90;11.60;100631;;;;583194;246;24106;-78
2022/07/06 02:21:09;;;;;;;4.60;2.07;;;12.20;99.90;11.60;100623;;;;578047;246;35072;-79
2022/07/06 02:23:37;;;;;;;5.90;2.23;;;12.20;99.90;11.60;100620;;;;582478;246;24102;-79
2022/07/06 02:26:05;;;;;;;3.60;1.57;;;12.20;99.90;11.60;100616;;;;582336;241;24071;-80
2022/07/06 02:28:33;;;;;;;6.97;1.77;;;12.20;99.90;11.60;100625;;;;582302;246;24072;-79
2022/07/06 02:31:01;;;;;;;5.10;1.53;;;12.30;99.90;11.60;100622;;;;582660;246;24086;-80
2022/07/06 02:33:29;;;;;;;3.13;2.00;;;12.20;99.90;11.70;100621;;;;582045;246;24079;-79
2022/07/06 02:35:57;;;;;;;2.17;1.47;;;12.30;99.90;11.70;100624;;;;581992;246;24111;-79
2022/07/06 02:38:25;;;;;;;2.70;1.70;;;12.40;99.90;11.70;100621;;;;582099;246;24153;-80
2022/07/06 02:40:53;;;;;;;2.57;1.70;;;12.40;99.90;11.70;100617;;;;582153;246;24090;-80
2022/07/06 02:43:21;;;;;;;2.93;1.57;;;12.40;99.90;11.70;100622;;;;582179;241;24072;-80
2022/07/06 02:45:49;;;;;;;1.40;1.30;;;12.40;99.90;11.80;100622;;;;581938;246;24114;-79
2022/07/06 02:48:19;;;;;;;1.83;1.60;;;12.40;99.90;11.70;100624;;;;581853;246;24130;-78
2022/07/06 02:50:45;;;;;;;5.07;1.90;;;12.40;99.90;11.80;100625;;;;581730;241;24055;-80
2022/07/06 02:53:13;;;;;;;1.63;1.50;;;12.40;99.90;11.80;100622;;;;582085;246;24107;-79
2022/07/06 02:55:41;;;;;;;1.50;1.40;;;12.50;99.90;11.90;100633;;;;582075;246;24091;-79
2022/07/06 02:58:09;;;;;;;2.03;1.50;;;12.50;99.90;11.90;100623;;;;582015;246;24114;-81
2022/07/06 03:00:37;;;;;;;2.13;1.67;;;12.50;99.90;12.00;100630;;;;582422;246;24111;-79
2022/07/06 03:03:08;;;;;;;2.47;1.40;;;12.60;99.90;12.00;100628;;;;581813;246;24126;-79
2022/07/06 03:05:33;;;;;;;2.97;1.50;;;12.60;99.90;12.10;100626;;;;581401;241;24073;-79
2022/07/06 03:08:01;;;;;;;2.30;2.10;;;12.80;99.90;12.20;100626;;;;581846;246;24068;-80
2022/07/06 03:10:29;;;;;;;2.53;1.50;;;12.80;99.90;12.30;100624;;;;581637;246;24072;-80
2022/07/06 03:12:57;;;;;;;2.27;1.57;;;12.90;99.90;12.50;100620;;;;581773;246;24107;-80
2022/07/06 03:15:25;;;;;;;2.13;1.40;;;13.10;99.90;12.60;100621;;;;581664;241;24130;-81
2022/07/06 03:17:53;;;;;;;1.50;1.47;;;13.20;99.90;12.70;100615;;;;581534;246;24106;-80
2022/07/06 03:20:21;;;;;;;2.70;1.27;;;13.30;99.90;12.80;100620;;;;581836;246;24087;-78
2022/07/06 03:22:48;;;;;;;3.03;1.33;;;13.40;99.90;13.00;100618;;;;581769;246;24094;-80
2022/07/06 03:25:16;;;;;;;2.20;1.53;;;13.60;99.90;13.30;100615;;;;583201;245;24119;-81
2022/07/06 03:27:44;;;;;;;1.00;1.00;;;13.80;99.90;13.40;100620;;;;583017;246;24104;-79
2022/07/06 03:30:13;;;;;;;3.07;1.40;;;14.00;99.90;13.60;100608;;;;582454;240;24111;-78
2022/07/06 03:32:40;;;;;;;3.90;1.47;;;14.20;99.90;13.90;100607;;;;582511;246;24079;-78
2022/07/06 03:35:08;;;;;;;3.23;1.40;;;14.50;99.90;14.20;100605;;;;582181;246;24138;-79
2022/07/06 03:37:36;;;;;;;1.13;1.00;;;14.80;99.90;14.70;100612;;;;582322;246;24114;-79
2022/07/06 03:40:04;;;;;;;1.23;1.13;;;15.20;99.90;15.10;100608;;;;582176;246;24076;-79
2022/07/06 03:42:32;;;;;;;3.53;1.43;;;15.70;99.90;15.20;100605;;;;581908;246;24068;-79
2022/07/06 03:44:59;;;;;;;3.60;1.37;;;15.80;99.90;15.20;100609;;;;581918;246;24071;-79
2022/07/06 03:47:27;;;;;;;3.20;1.20;;;15.80;99.90;15.20;100616;;;;581910;246;24145;-81
2022/07/06 03:49:59;;;;;;;2.20;1.23;;;15.90;99.90;15.20;100616;;;;581940;246;24073;-79
2022/07/06 03:52:24;;;;;;;2.17;1.00;;;15.80;99.90;15.20;100619;;;;581978;246;24056;-82
2022/07/06 03:54:52;;;;;;;4.73;1.30;;;15.80;99.90;15.10;100617;;;;582395;246;24103;-81
2022/07/06 03:57:21;;;;;;;2.73;1.10;;;15.80;99.90;15.10;100621;;;;582003;241;24094;-79
2022/07/06 03:59:48;;;;;;;1.53;1.40;;;15.80;99.90;15.10;100612;;;;582150;246;24108;-80
2022/07/06 04:02:16;;;;;;;2.40;1.10;;;15.80;99.90;15.20;100624;;;;581709;246;24087;-82
2022/07/06 04:04:44;;;;;;;3.40;1.13;;;15.80;99.90;15.20;100615;;;;581667;241;24109;-79
2022/07/06 04:07:12;;;;;;;3.17;1.77;;;15.80;99.90;15.20;100617;;;;581779;246;24071;-79
2022/07/06 04:09:40;;;;;;;1.83;1.10;;;15.90;99.90;15.30;100614;;;;581786;246;24085;-83
2022/07/06 04:12:08;;;;;;;2.83;1.63;;;15.90;99.90;15.30;100616;;;;581809;241;24099;-81
2022/07/06 04:14:36;;;;;;;3.40;1.50;;;15.90;99.90;15.40;100613;;;;581928;246;24083;-79
2022/07/06 04:19:49;;;;;;;1.53;1.40;;;16.00;99.90;15.50;100617;;;;582139;244;24114;-82
2022/07/06 04:22:19;;;;;;;4.07;1.43;;;16.10;99.90;15.50;100609;;;;582428;246;24082;-81
2022/07/06 04:24:47;;;;;;;2.00;1.47;;;16.10;99.90;15.50;100605;;;;581730;246;24064;-82
2022/07/06 04:27:15;;;;;;;2.77;1.37;;;16.10;99.90;15.60;100609;;;;581695;246;24110;-82
2022/07/06 04:29:43;;;;;;;2.50;1.20;;;16.20;99.90;15.70;100607;;;;581872;246;24057;-79
2022/07/06 04:32:11;;;;;;;3.03;1.10;;;16.30;99.90;15.80;100604;;;;581910;246;24079;-79
2022/07/06 04:34:39;;;;;;;2.87;1.27;;;16.30;99.90;15.90;100604;;;;581963;246;24130;-80
2022/07/06 04:37:07;;;;;;;5.70;1.53;;;16.60;99.90;16.00;100600;;;;583021;245;24103;-81
2022/07/06 04:39:35;;;;;;;1.97;1.33;;;16.60;99.90;16.20;100601;;;;582703;246;24135;-82
2022/07/06 04:42:06;;;;;;;4.07;1.30;;;16.80;99.90;16.40;100608;;;;582510;246;24090;-81
2022/07/06 04:44:31;;;;;;;1.23;1.10;;;17.00;99.90;16.50;100606;;;;582635;246;24084;-79
2022/07/06 04:47:00;;;;;;;2.50;1.20;;;17.20;99.90;16.70;100592;;;;582253;246;24104;-79
2022/07/06 04:49:28;;;;;;;4.43;1.20;;;17.30;99.90;16.70;100581;;;;574177;246;24058;-79
2022/07/06 04:51:56;;;;;;;3.67;1.37;;;17.30;99.90;16.70;100593;;;;574045;246;24104;-80
2022/07/06 04:54:24;;;;;;;1.23;1.17;;;17.30;99.90;17.80;100594;;;;574511;247;24063;-80
2022/07/06 04:56:52;;;;;;;2.03;1.17;;;18.20;99.90;20.00;100601;;;;573927;247;24069;-79
2022/07/06 04:59:20;;;;;;;1.40;1.10;;;20.40;99.90;22.50;100589;;;;574368;247;24053;-80
2022/07/06 05:01:48;;;;;;;1.57;0.90;;;23.00;99.90;24.50;100594;;;;574340;247;24135;-79
2022/07/06 05:04:19;;;;;;;2.03;1.17;;;25.20;99.90;26.40;100591;;;;574301;247;24066;-80
2022/07/06 05:06:47;;;;;;;3.33;1.47;;;27.20;99.90;28.30;100593;;;;574253;247;23187;-80
2022/07/06 05:09:12;;;;;;;3.03;1.20;;;30.90;84.70;30.00;100594;;;;573948;247;24105;-80
2022/07/06 05:11:41;;;;;;;3.63;1.20;;;31.70;75.60;30.70;100591;;;;574269;247;23142;-82
2022/07/06 05:14:10;;;;;;;3.67;1.30;;;31.70;74.80;31.20;100591;;;;574190;247;23110;-80
2022/07/06 05:16:37;;;;;;;3.75;1.60;;;32.20;69.10;31.90;100593;;;;574235;247;24087;-81
2022/07/06 05:19:08;;;;;;;2.67;1.33;;;32.90;63.90;31.10;100594;;;;574121;247;24086;-83
2022/07/06 05:21:33;;;;;;;0.95;0.90;;;32.40;62.70;31.40;100598;;;;573766;247;23085;-81
2022/07/06 05:24:01;;;;;;;2.53;1.55;;;32.40;61.70;32.40;100601;;;;573997;246;23067;-82
2022/07/06 05:26:28;;;;;;;4.30;1.60;;;33.10;60.00;33.50;100595;;;;574030;247;23077;-79
2022/07/06 05:28:56;;;;;;;2.75;1.58;;;34.30;57.90;34.60;100600;;;;573939;247;24086;-80
2022/07/06 05:31:25;;;;;;;3.50;1.23;;;36.40;53.20;35.60;100601;;;;574102;247;23111;-81
2022/07/06 05:33:54;;;;;;;1.95;1.15;;;36.80;51.60;35.80;100606;;;;574095;246;23120;-80
2022/07/06 05:36:22;;;;;;;4.85;1.30;;;37.30;50.50;36.40;100605;;;;574014;247;24067;-81
2022/07/06 05:38:50;;;;;;;2.95;1.20;;;37.20;50.40;36.90;100603;;;;573472;247;23069;-81
2022/07/06 05:41:18;;;;;;;3.33;1.27;;;37.80;49.40;37.30;100609;;;;573730;246;23143;-81
2022/07/06 05:43:46;;;;;;;2.03;0.85;;;38.10;48.40;37.50;100605;;;;573566;247;24096;-80
2022/07/06 05:46:14;;;;;;;2.92;1.10;;;38.30;47.90;37.40;100612;;;;573742;247;23062;-80
2022/07/06 05:51:29;;;;;;;1.12;0.95;;;38.20;47.00;38.50;100610;;;;574844;240;23094;-81
2022/07/06 05:53:57;;;;;;;1.95;1.30;;;39.10;46.20;39.30;100621;;;;574443;246;24093;-83
2022/07/06 05:56:26;;;;;;;5.55;0.93;;;40.40;44.90;39.80;100612;;;;574506;246;23115;-82
2022/07/06 05:58:54;;;;;;;1.55;1.10;;;41.30;43.20;40.90;100612;;;;574223;246;23105;-84
2022/07/06 06:01:22;;;;;;;3.78;1.35;;;41.30;43.20;40.80;100617;;;;574340;246;23092;-81
2022/07/06 06:03:50;;;;;;;7.25;1.52;;;41.60;41.80;38.70;100617;;;;574366;245;23122;-81
2022/07/06 06:06:18;;;;;;;1.52;1.15;;;40.10;42.50;36.70;100609;;;;574037;247;23080;-83
2022/07/06 06:08:46;;;;;;;2.28;1.00;;;38.20;44.10;35.70;100607;;;;574195;247;23084;-80
2022/07/06 06:11:14;;;;;;;3.58;1.25;;;36.80;45.50;35.60;100605;;;;574124;245;23057;-82
2022/07/06 06:13:42;;;;;;;3.20;1.25;;;36.40;46.50;35.00;100614;;;;574143;247;23071;-80
2022/07/06 06:16:13;;;;;;;1.25;0.90;;;35.70;47.10;35.70;100608;;;;573953;247;23074;-81
2022/07/06 06:18:38;;;;;;;2.60;1.42;;;35.90;47.70;36.70;100600;;;;573449;247;23093;-82
2022/07/06 06:21:05;;;;;;;2.33;0.90;;;36.80;46.80;35.90;100597;;;;574031;247;24063;-83
2022/07/06 06:23:34;;;;;;;2.28;1.10;;;35.80;46.00;35.20;100596;;;;568763;246;35033;-81
2022/07/06 06:26:02;;;;;;;5.45;1.10;;;35.80;46.00;35.20;100599;;;;573763;247;23063;-80
2022/07/06 06:28:30;;;;;;;2.15;1.20;;;35.70;46.60;35.80;100603;;;;573891;245;23085;-83
2022/07/06 06:30:58;;;;;;;2.65;0.95;;;36.10;46.70;36.10;100597;;;;573814;247;23058;-82
2022/07/06 06:33:26;;;;;;;1.20;0.80;;;36.40;46.40;37.00;100604;;;;573739;246;23080;-81
2022/07/06 06:35:54;;;;;;;2.70;0.90;;;37.10;45.80;38.10;100600;;;;573552;247;23109;-80
2022/07/06 06:38:25;;;;;;;1.12;0.90;;;38.20;44.50;38.70;100605;;;;582579;241;23099;-81
2022/07/06 06:40:50;;;;;;;3.05;1.20;;;38.80;43.60;39.60;100609;;;;574002;246;23090;-81
2022/07/06 06:43:17;;;;;;;0.98;0.90;;;39.70;43.50;40.40;100607;;;;571064;247;23069;-81
2022/07/06 06:45:46;;;;;;;2.72;1.40;;;40.80;41.60;40.50;100604;;;;587525;244;23142;-82
2022/07/06 06:48:15;;;;;;;2.37;1.10;;;41.70;40.70;41.50;100601;;;;578789;244;23080;-83
2022/07/06 06:50:47;;;;;;;2.17;1.20;;;42.10;39.30;41.70;100600;;;;573686;244;35079;-82
2022/07/06 06:53:11;;;;;;;3.95;1.10;;;42.10;39.30;41.10;100595;;;;579943;243;23114;-82
2022/07/06 06:55:39;;;;;;;1.23;0.88;;;41.70;40.60;39.60;100587;;;;580699;243;23077;-82
2022/07/06 06:58:07;;;;;;;1.08;1.00;;;40.60;40.60;39.90;100588;;;;580384;243;23134;-82
2022/07/06 07:00:38;;;;;;;1.95;1.10;;;40.30;42.30;41.50;100581;;;;582069;242;23070;-81
2022/07/06 07:03:03;;;;;;;2.45;1.15;;;41.40;41.00;42.80;100578;;;;575115;246;23071;-82
2022/07/06 07:05:31;;;;;;;2.17;1.23;;;42.70;39.00;43.70;100592;;;;585581;242;23076;-82
2022/07/06 07:07:59;;;;;;;6.12;1.10;;;43.80;38.10;42.60;100592;;;;574501;246;23085;-82
2022/07/06 07:10:28;;;;;;;2.50;1.20;;;42.80;37.80;42.20;100588;;;;574231;245;24128;-83
2022/07/06 07:12:56;;;;;;;1.65;1.20;;;42.70;38.10;42.30;100594;;;;574408;246;23081;-84
2022/07/06 07:15:24;;;;;;;3.17;1.10;;;42.70;38.00;42.30;100593;;;;574277;246;23366;-82
2022/07/06 07:17:52;;;;;;;1.90;0.95;;;42.60;38.10;40.80;100591;;;;574477;247;24122;-84
2022/07/06 07:20:27;;;;;;;2.80;1.30;;;41.70;38.50;40.70;100588;;;;569054;247;35016;-83
2022/07/06 07:22:51;;;;;;;4.75;1.30;;;41.20;39.40;41.80;100601;;;;573334;247;23071;-81
2022/07/06 07:25:22;;;;;;;5.12;0.90;;;41.90;40.10;41.90;100596;;;;574162;247;23072;-80
2022/07/06 07:27:47;;;;;;;1.55;0.90;;;42.00;38.40;41.20;100596;;;;573751;247;23125;-79
2022/07/06 07:30:19;;;;;;;1.08;0.82;;;41.70;38.30;38.70;100596;;;;574104;245;23054;-82
2022/07/06 07:32:46;;;;;;;2.83;0.90;;;39.80;39.50;37.60;100595;;;;573974;247;23120;-82
2022/07/06 07:35:11;;;;;;;3.22;1.20;;;38.40;41.90;36.70;100595;;;;573803;247;23123;-83
2022/07/06 07:37:39;;;;;;;2.80;1.42;;;37.40;42.00;36.70;100586;;;;573942;247;24135;-81
2022/07/06 07:40:07;;;;;;;3.03;1.08;;;38.40;41.30;38.70;100589;;;;573859;247;23043;-83
2022/07/06 07:42:40;;;;;;;3.60;0.80;;;40.20;39.80;40.80;100592;;;;582704;241;24163;-82
2022/07/06 07:45:08;;;;;;;2.30;1.00;;;40.20;40.60;42.80;100594;;;;568630;247;35025;-83
2022/07/06 07:47:32;;;;;;;3.35;0.73;;;42.30;37.80;44.00;100583;;;;583121;241;23221;-82
2022/07/06 07:50:00;;;;;;;1.70;1.00;;;43.90;34.80;44.50;100588;;;;573881;245;23070;-81
2022/07/06 07:52:28;;;;;;;1.67;0.98;;;44.60;34.00;45.20;100599;;;;573839;245;23103;-82
2022/07/06 07:54:56;;;;;;;1.70;0.80;;;45.30;33.00;46.10;100599;;;;573872;247;23115;-81
2022/07/06 07:57:24;;;;;;;1.80;1.23;;;46.30;32.30;44.50;100598;;;;573762;247;23085;-83
2022/07/06 07:59:52;;;;;;;1.90;0.80;;;45.60;32.60;43.40;100598;;;;573957;247;23073;-83
2022/07/06 08:02:19;;;;;;;0.73;0.70;;;44.40;33.90;42.40;100604;;;;573788;246;23066;-81
2022/07/06 08:04:47;;;;;;;1.48;0.98;;;43.40;33.60;41.70;100600;;;;573678;247;23058;-83
2022/07/06 08:07:15;;;;;;;1.00;0.93;;;42.60;34.30;41.90;100598;;;;573878;241;23076;-84
2022/07/06 08:09:43;;;;;;;1.70;1.00;;;42.30;35.10;42.70;100604;;;;573948;247;24096;-82
2022/07/06 08:12:11;;;;;;;1.23;0.90;;;42.80;34.90;43.10;100605;;;;575503;246;23118;-84
2022/07/06 08:14:40;;;;;;;0.80;0.80;;;44.20;33.90;44.30;100597;;;;574864;246;23079;-83
2022/07/06 08:17:08;;;;;;;2.90;1.30;;;44.20;33.10;44.80;100607;;;;574859;246;23078;-85
2022/07/06 08:19:36;;;;;;;2.72;0.80;;;44.90;32.70;45.50;100597;;;;574754;246;23054;-84
2022/07/06 08:22:10;;;;;;;0.88;0.73;;;45.60;32.50;46.00;100596;;;;574426;246;23114;-83
2022/07/06 08:24:34;;;;;;;5.07;1.05;;;46.30;32.40;43.40;100601;;;;582721;235;23102;-81
2022/07/06 08:27:03;;;;;;;2.37;0.82;;;42.60;33.30;40.80;100609;;;;579205;244;26303;-81
2022/07/06 08:29:31;;;;;;;1.52;0.98;;;42.50;33.20;38.70;100598;;;;581315;244;23096;-81
2022/07/06 08:31:59;;;;;;;5.50;0.80;;;40.30;35.10;37.80;100596;;;;578493;244;23066;-81
2022/07/06 08:34:27;;;;;;;3.78;2.03;;;38.80;36.70;36.80;100593;;;;578934;244;23193;-80
2022/07/06 08:36:55;;;;;;;0.80;0.80;;;37.70;37.80;35.70;100590;;;;588069;242;24114;-81
2022/07/06 08:39:23;;;;;;;4.70;0.98;;;36.50;39.10;36.50;100597;;;;575292;244;23100;-81
2022/07/06 08:41:50;;;;;;;1.42;1.00;;;36.70;39.80;38.00;100594;;;;578949;244;24142;-80
2022/07/06 08:44:18;;;;;;;2.85;0.62;;;37.90;39.00;37.90;100590;;;;578245;244;24010;-81
2022/07/06 08:46:46;;;;;;;1.55;0.95;;;38.30;37.90;36.40;100588;;;;578257;244;23098;-81
2022/07/06 08:49:14;;;;;;;2.22;1.02;;;37.30;38.60;35.20;100590;;;;587594;240;23061;-80
2022/07/06 08:51:46;;;;;;;1.33;0.80;;;36.30;40.00;35.10;100582;;;;574764;243;24040;-81
2022/07/06 08:54:10;;;;;;;1.08;0.88;;;35.70;41.00;36.00;100581;;;;583284;242;23087;-81
2022/07/06 08:56:38;;;;;;;1.92;0.85;;;36.20;40.70;35.80;100592;;;;590486;241;23139;-80
2022/07/06 08:59:08;;;;;;;7.03;1.00;;;36.20;40.50;36.80;100587;;;;563639;249;23131;-81
2022/07/06 09:01:34;;;;;;;3.85;1.02;;;36.90;40.10;36.60;100609;;;;577190;247;23120;-81
2022/07/06 09:04:02;;;;;;;4.30;1.17;;;35.90;40.30;34.50;100607;;;;578982;244;23158;-80
2022/07/06 09:06:30;;;;;;;4.50;0.77;;;35.90;40.30;32.00;100607;;;;579094;244;23156;-79
2022/07/06 09:09:01;;;;;;;4.90;0.70;;;33.80;41.80;30.00;100608;;;;576826;244;24126;-82
2022/07/06 09:11:26;;;;;;;0.95;0.60;;;31.70;44.60;28.50;100614;;;;587744;244;23081;-80
2022/07/06 09:13:54;;;;;;;2.58;0.50;;;29.90;46.80;26.90;100616;;;;577794;244;23128;-81
2022/07/06 09:16:28;;;;;;;4.07;0.70;;;28.20;49.10;25.60;100609;;;;577750;244;23107;-81
2022/07/06 09:18:56;;;;;;;0.70;0.57;;;26.70;51.40;24.50;100617;;;;579070;244;23100;-81
2022/07/06 09:21:27;;;;;;;2.23;0.97;;;25.50;54.00;23.70;100621;;;;587908;244;23125;-81
2022/07/06 09:23:57;;;;;;;2.07;0.70;;;24.50;56.00;23.10;100624;;;;577622;243;24059;-80
2022/07/06 09:26:28;;;;;;;0.80;0.53;;;23.70;58.40;22.60;100619;;;;580184;244;24101;-80
2022/07/06 09:28:54;;;;;;;2.57;0.70;;;23.20;60.30;22.60;100610;;;;579966;244;24076;-80
2022/07/06 09:31:26;;;;;;;1.03;0.93;;;23.00;61.90;22.70;100620;;;;569434;248;24101;-81
2022/07/06 09:34:10;;;;;;;0.60;0.60;;;23.20;62.70;22.90;100618;;;;588058;244;24090;-79
2022/07/06 09:36:51;;;;;;;2.50;1.10;;;23.20;62.70;23.00;100622;;;;579667;244;24051;-79
2022/07/06 09:39:28;;;;;;;1.63;0.50;;;23.30;62.40;23.50;100612;;;;579903;244;24071;-80
2022/07/06 09:41:59;;;;;;;1.30;0.77;;;23.60;63.50;26.60;100603;;;;588714;242;23089;-80
2022/07/06 09:44:30;;;;;;;1.03;0.77;;;26.30;60.10;30.00;100609;;;;577679;244;23145;-78
2022/07/06 09:46:58;;;;;;;0.60;0.57;;;29.90;54.10;31.50;100620;;;;579265;244;23130;-81
2022/07/06 09:49:26;;;;;;;2.78;0.90;;;31.90;49.40;32.10;100608;;;;579176;244;23084;-81
2022/07/06 09:51:56;;;;;;;1.30;0.68;;;32.70;47.30;31.90;100620;;;;588218;242;23124;-82
2022/07/06 09:54:25;;;;;;;0.85;0.55;;;32.20;44.90;31.10;100617;;;;579577;244;23150;-80
2022/07/06 09:56:54;;;;;;;2.60;0.57;;;31.40;46.30;30.40;100604;;;;579423;244;23091;-81
2022/07/06 09:59:32;;;;;;;1.30;0.60;;;31.00;47.00;30.20;100613;;;;579357;244;23074;-80
2022/07/06 10:01:57;;;;;;;0.60;0.60;;;30.90;47.00;29.90;100614;;;;579066;244;23120;-81
2022/07/06 10:04:24;;;;;;;1.60;0.45;;;30.60;47.30;29.60;100613;;;;578991;244;23120;-81
2022/07/06 10:06:52;;;;;;;4.57;1.08;;;30.30;47.90;29.20;100608;;;;579070;244;23082;-81
2022/07/06 10:09:20;;;;;;;2.70;0.70;;;29.90;48.10;29.20;100604;;;;579257;244;24073;-81
2022/07/06 10:12:00;;;;;;;5.32;0.52;;;29.70;48.30;29.40;100615;;;;579077;244;23100;-80
2022/07/06 10:14:32;;;;;;;1.67;0.50;;;29.80;48.40;30.50;100606;;;;579028;244;24102;-80
2022/07/06 10:16:59;;;;;;;3.22;0.80;;;30.70;48.20;32.30;100614;;;;578814;244;23116;-81
2022/07/06 10:19:24;;;;;;;0.43;0.43;;;32.50;46.30;33.00;100616;;;;578977;244;23078;-81
2022/07/06 10:21:54;;;;;;;2.05;0.55;;;33.50;43.90;32.60;100616;;;;577684;244;23076;-82
2022/07/06 10:24:20;;;;;;;2.05;0.60;;;33.40;43.70;32.50;100625;;;;578945;244;23104;-81
2022/07/06 10:26:50;;;;;;;1.27;0.60;;;33.40;43.90;32.80;100615;;;;579087;244;23107;-80
2022/07/06 10:29:23;;;;;;;0.85;0.50;;;34.50;43.50;34.00;100620;;;;579144;244;23100;-83
2022/07/06 10:31:48;;;;;;;0.82;0.80;;;35.40;42.40;34.80;100623;;;;587537;244;24148;-81
2022/07/06 10:34:16;;;;;;;0.65;0.55;;;36.30;42.10;35.60;100621;;;;579932;243;24149;-82
2022/07/06 10:36:44;;;;;;;1.30;0.60;;;36.20;41.40;36.10;100613;;;;580265;242;23179;-82
2022/07/06 10:41:58;;;;;;;1.10;0.73;;;37.20;40.20;35.20;100621;;;;579813;244;23153;-82
2022/07/06 10:44:27;;;;;;;4.10;0.70;;;34.90;42.70;33.50;100620;;;;578237;244;24107;-81
2022/07/06 10:46:57;;;;;;;9.73;1.08;;;34.80;42.20;32.10;100631;;;;579530;244;23104;-81
2022/07/06 10:49:29;;;;;;;5.43;0.95;;;33.30;44.80;30.30;100634;;;;577860;244;24152;-81
2022/07/06 10:51:57;;;;;;;3.33;0.57;;;31.60;46.30;28.80;100636;;;;568643;248;23094;-82
2022/07/06 10:54:21;;;;;;;3.03;0.60;;;30.00;48.40;27.50;100634;;;;578679;244;23087;-80
2022/07/06 10:56:53;;;;;;;2.60;0.87;;;27.50;52.20;26.90;100636;;;;577628;244;23115;-80
2022/07/06 10:59:22;;;;;;;1.67;0.67;;;26.90;53.90;26.40;100632;;;;578824;244;24126;-80
2022/07/06 11:02:14;;;;;;;1.03;0.73;;;26.80;53.80;25.80;100625;;;;568739;248;23164;-81
2022/07/06 11:04:45;;;;;;;2.37;0.57;;;26.20;54.60;25.10;100639;;;;569643;248;23135;-81
2022/07/06 11:07:10;;;;;;;1.90;0.47;;;25.50;55.20;24.60;100634;;;;580874;247;24068;-81
2022/07/06 11:09:38;;;;;;;1.87;0.80;;;25.00;56.90;24.00;100630;;;;578545;244;24088;-81
2022/07/06 11:12:21;;;;;;;1.77;0.73;;;24.40;58.40;23.50;100630;;;;587870;242;24043;-81
2022/07/06 11:14:52;;;;;;;3.10;0.50;;;24.00;60.80;23.20;100621;;;;578289;244;24051;-80
2022/07/06 11:17:20;;;;;;;1.30;0.60;;;23.50;61.70;23.20;100631;;;;578778;244;24074;-81
2022/07/06 11:19:49;;;;;;;0.63;0.40;;;23.40;62.30;23.00;100626;;;;578806;244;24116;-81
2022/07/06 11:22:18;;;;;;;1.13;0.67;;;23.30;62.20;22.90;100627;;;;578687;244;24085;-81
2022/07/06 11:24:48;;;;;;;15.17;1.63;;;23.30;63.70;22.70;100629;;;;579044;244;24078;-80